Time;durP1;ratioP1;P1;durP2;ratioP2;P2;SDS_P1;SDS_P2;PMS_P1;PMS_P2;Temp;Humidity;BMP_temperature;BMP_pressure;BME280_temperature;BME280_humidity;BME280_pressure;Samples;Min_cycle;Max_cycle;Signal;HPM_P1;HPM_P2
2023/09/15 00:02:07;;;;;;;6.45;3.75;;;10.10;99.90;;;;;;5038744;28;20765;-80
2023/09/15 00:04:33;;;;;;;3.97;2.55;;;10.10;99.90;;;;;;5046543;28;20044;-80
2023/09/15 00:06:59;;;;;;;6.45;2.28;;;10.10;99.90;;;;;;5054498;28;20040;-80
2023/09/15 00:09:24;;;;;;;6.25;2.40;;;10.10;99.90;;;;;;5056877;28;20044;-81
2023/09/15 00:11:51;;;;;;;4.72;2.42;;;10.10;99.90;;;;;;5038278;28;20051;-79
2023/09/15 00:14:18;;;;;;;5.55;2.10;;;10.10;99.90;;;;;;5049597;28;20058;-80
2023/09/15 00:16:44;;;;;;;5.28;2.20;;;10.10;99.90;;;;;;5044623;28;20040;-80
2023/09/15 00:19:13;;;;;;;3.58;2.08;;;10.10;99.90;;;;;;5043495;28;20036;-80
2023/09/15 00:21:43;;;;;;;3.20;1.73;;;10.00;99.90;;;;;;5034417;28;20028;-81
2023/09/15 00:24:09;;;;;;;3.35;1.85;;;10.00;99.90;;;;;;5032114;28;20040;-80
2023/09/15 00:26:35;;;;;;;3.70;1.95;;;10.00;99.90;;;;;;5031973;28;20037;-78
2023/09/15 00:29:02;;;;;;;7.28;2.58;;;10.00;99.90;;;;;;5056524;28;20032;-80
2023/09/15 00:31:28;;;;;;;3.80;1.98;;;10.00;99.90;;;;;;5036456;28;20047;-79
2023/09/15 00:33:54;;;;;;;9.43;2.20;;;9.90;99.90;;;;;;5045699;28;20016;-79
2023/09/15 00:36:20;;;;;;;6.85;2.55;;;9.90;99.90;;;;;;5056481;28;20067;-78
2023/09/15 00:38:45;;;;;;;3.80;2.10;;;9.90;99.90;;;;;;5078841;28;20079;-79
2023/09/15 00:41:13;;;;;;;4.38;1.85;;;9.90;99.90;;;;;;5074291;28;20060;-79
2023/09/15 00:43:39;;;;;;;4.25;2.53;;;9.90;99.90;;;;;;5063989;28;20052;-79
2023/09/15 00:46:08;;;;;;;6.10;1.80;;;9.90;99.90;;;;;;5050531;28;20036;-79
2023/09/15 00:48:34;;;;;;;4.82;2.00;;;9.80;99.90;;;;;;5048083;28;20040;-80
2023/09/15 00:51:06;;;;;;;3.55;1.92;;;9.80;99.90;;;;;;5052662;28;20096;-79
2023/09/15 00:53:32;;;;;;;6.30;2.28;;;9.80;1.00;;;;;;5046277;28;20064;-80
2023/09/15 00:55:58;;;;;;;4.60;2.15;;;9.80;1.00;;;;;;5037358;28;20064;-80
2023/09/15 00:58:24;;;;;;;5.68;2.95;;;9.80;1.00;;;;;;5068916;28;20044;-80
2023/09/15 01:00:51;;;;;;;4.22;2.47;;;9.80;1.00;;;;;;5050509;28;20037;-80
2023/09/15 01:03:20;;;;;;;5.25;2.22;;;9.80;1.00;;;;;;5065229;28;20036;-80
2023/09/15 01:05:46;;;;;;;4.45;2.22;;;9.70;1.00;;;;;;5057822;28;20091;-79
2023/09/15 01:08:12;;;;;;;4.35;2.25;;;9.70;1.00;;;;;;5058584;28;20052;-79
2023/09/15 01:10:38;;;;;;;4.97;2.33;;;9.70;1.00;;;;;;5047512;28;20734;-80
2023/09/15 01:13:04;;;;;;;8.95;2.88;;;9.60;1.00;;;;;;5072341;28;20104;-80
2023/09/15 01:15:34;;;;;;;4.50;2.50;;;9.60;1.00;;;;;;5066444;28;20028;-80
2023/09/15 01:18:22;;;;;;;2.88;2.20;;;9.60;1.00;;;;;;5071346;28;20074;-79
2023/09/15 01:21:21;;;;;;;5.53;2.40;;;9.60;1.00;;;;;;5074217;28;20044;-80
2023/09/15 01:24:21;;;;;;;5.65;2.20;;;9.60;1.00;;;;;;5044357;28;20033;-80
2023/09/15 01:27:05;;;;;;;5.07;2.70;;;9.60;1.00;;;;;;5054108;28;20232;-79
2023/09/15 01:29:54;;;;;;;5.60;2.67;;;9.50;1.00;;;;;;5053757;28;20024;-80
2023/09/15 01:32:21;;;;;;;4.43;2.53;;;9.50;1.00;;;;;;5054373;28;20041;-80
2023/09/15 01:34:53;;;;;;;4.05;2.25;;;9.50;1.00;;;;;;5044906;28;20048;-80
2023/09/15 01:37:19;;;;;;;7.05;2.55;;;9.50;1.00;;;;;;5042166;28;20051;-80
2023/09/15 01:39:45;;;;;;;5.22;2.60;;;9.50;1.00;;;;;;5048479;28;20036;-80
2023/09/15 01:42:11;;;;;;;3.42;2.05;;;9.50;1.00;;;;;;5049288;28;20059;-80
2023/09/15 01:44:37;;;;;;;4.78;2.25;;;9.50;1.00;;;;;;5046232;28;20037;-80
2023/09/15 01:47:06;;;;;;;5.57;2.55;;;9.40;1.00;;;;;;5048337;28;20155;-79
2023/09/15 01:49:32;;;;;;;3.55;2.25;;;9.40;1.00;;;;;;5063502;28;20092;-79
2023/09/15 01:51:59;;;;;;;3.28;2.22;;;9.40;1.00;;;;;;5061884;28;20049;-79
2023/09/15 01:54:25;;;;;;;4.35;2.60;;;9.40;1.00;;;;;;5054236;28;20036;-78
2023/09/15 01:56:51;;;;;;;6.68;2.67;;;9.40;1.00;;;;;;5037042;28;20055;-79
2023/09/15 01:59:16;;;;;;;4.25;2.42;;;9.40;1.00;;;;;;5042647;28;20076;-79
2023/09/15 02:01:42;;;;;;;7.35;2.78;;;9.40;1.00;;;;;;5056712;28;20062;-79
2023/09/15 02:04:09;;;;;;;4.75;2.30;;;9.40;1.00;;;;;;5044443;28;20084;-80
2023/09/15 02:06:35;;;;;;;6.65;2.40;;;9.40;1.00;;;;;;5046014;28;20041;-79
2023/09/15 02:09:01;;;;;;;4.53;2.55;;;9.30;1.00;;;;;;5063677;28;20040;-79
2023/09/15 02:11:26;;;;;;;5.20;2.55;;;9.30;1.00;;;;;;5056243;28;20048;-79
2023/09/15 02:13:52;;;;;;;3.42;2.35;;;9.30;1.00;;;;;;5040722;28;20522;-79
2023/09/15 02:16:17;;;;;;;3.95;2.30;;;9.30;1.00;;;;;;5058532;28;20055;-79
2023/09/15 02:18:43;;;;;;;9.10;2.53;;;9.30;1.00;;;;;;5065764;28;20036;-80
2023/09/15 02:21:09;;;;;;;4.95;2.70;;;9.20;1.00;;;;;;5066507;28;20032;-80
2023/09/15 02:23:35;;;;;;;4.72;2.17;;;9.20;1.00;;;;;;5051700;28;20471;-80
2023/09/15 02:26:04;;;;;;;11.23;2.95;;;9.10;1.00;;;;;;5049255;28;20132;-80
2023/09/15 02:28:31;;;;;;;5.03;2.50;;;9.10;1.00;;;;;;5038086;28;20493;-80
2023/09/15 02:30:57;;;;;;;6.00;2.78;;;9.10;1.00;;;;;;5046683;28;20044;-79
2023/09/15 02:33:23;;;;;;;6.32;2.20;;;9.10;1.00;;;;;;5044006;28;20051;-80
2023/09/15 02:35:50;;;;;;;5.50;2.40;;;9.00;1.00;;;;;;5062339;28;20764;-80
2023/09/15 02:38:15;;;;;;;3.03;2.33;;;9.00;1.00;;;;;;5040992;28;20062;-80
2023/09/15 02:40:41;;;;;;;4.55;2.50;;;8.90;1.00;;;;;;5046187;28;20048;-81
2023/09/15 02:43:10;;;;;;;7.70;2.60;;;8.80;1.00;;;;;;5063762;28;20035;-80
2023/09/15 02:45:36;;;;;;;5.75;2.60;;;8.80;1.00;;;;;;5065783;28;20410;-79
2023/09/15 02:48:05;;;;;;;7.85;2.80;;;8.80;1.00;;;;;;5074210;28;20044;-80
2023/09/15 02:50:31;;;;;;;6.78;2.78;;;8.70;1.00;;;;;;5052300;28;20044;-80
2023/09/15 02:52:57;;;;;;;4.53;2.95;;;8.80;1.00;;;;;;5037151;28;20071;-80
2023/09/15 02:55:23;;;;;;;6.40;2.70;;;8.80;1.00;;;;;;5046245;28;20108;-80
2023/09/15 02:57:52;;;;;;;5.05;2.78;;;8.80;1.00;;;;;;5044876;28;20072;-81
2023/09/15 03:00:20;;;;;;;4.40;3.00;;;8.80;1.00;;;;;;5061617;28;20067;-80
2023/09/15 03:02:46;;;;;;;4.25;3.40;;;8.80;1.00;;;;;;5045849;28;20064;-80
2023/09/15 03:05:13;;;;;;;6.13;3.20;;;8.80;1.00;;;;;;5062266;28;20087;-80
2023/09/15 03:07:39;;;;;;;7.05;2.67;;;8.80;1.00;;;;;;5062000;28;20048;-80
2023/09/15 03:10:09;;;;;;;5.97;2.88;;;8.90;1.00;;;;;;5046200;28;20036;-81
2023/09/15 03:12:36;;;;;;;7.40;2.85;;;8.90;1.00;;;;;;5065888;28;20046;-81
2023/09/15 03:15:05;;;;;;;6.22;3.05;;;8.90;1.00;;;;;;5048304;28;20040;-81
2023/09/15 03:17:31;;;;;;;7.28;3.40;;;8.80;1.00;;;;;;5061403;28;20051;-80
2023/09/15 03:19:57;;;;;;;4.40;3.10;;;8.80;1.00;;;;;;5047155;28;20040;-80
2023/09/15 03:22:23;;;;;;;4.55;2.88;;;8.80;1.00;;;;;;5061908;28;20048;-80
2023/09/15 03:24:51;;;;;;;10.18;4.07;;;8.80;1.00;;;;;;5048354;28;20033;-81
2023/09/15 03:27:17;;;;;;;8.43;3.50;;;8.80;1.00;;;;;;5044224;28;20055;-81
2023/09/15 03:29:43;;;;;;;6.45;2.60;;;8.80;1.00;;;;;;5051605;28;20037;-81
2023/09/15 03:32:08;;;;;;;7.82;3.10;;;8.70;1.00;;;;;;5048961;28;20045;-81
2023/09/15 03:34:38;;;;;;;6.47;2.90;;;8.70;1.00;;;;;;5047993;28;20048;-81
2023/09/15 03:37:04;;;;;;;6.88;3.00;;;8.70;1.00;;;;;;5056011;28;20040;-80
2023/09/15 03:39:29;;;;;;;6.57;3.65;;;8.70;1.00;;;;;;5066160;28;20058;-80
2023/09/15 03:41:56;;;;;;;5.47;2.72;;;8.60;1.00;;;;;;5068142;28;20076;-80
2023/09/15 03:44:22;;;;;;;5.88;3.08;;;8.60;1.00;;;;;;5080243;28;20048;-81
2023/09/15 03:46:48;;;;;;;5.28;3.13;;;8.50;1.00;;;;;;5066359;28;20074;-80
2023/09/15 03:49:14;;;;;;;6.47;2.58;;;8.50;1.00;;;;;;5066949;28;20095;-80
2023/09/15 03:51:40;;;;;;;6.35;3.15;;;8.40;1.00;;;;;;5070648;28;20069;-81
2023/09/15 03:54:06;;;;;;;8.40;3.00;;;8.40;1.00;;;;;;5051149;28;20052;-82
2023/09/15 03:56:32;;;;;;;7.88;2.63;;;8.40;1.00;;;;;;5053398;28;20084;-81
2023/09/15 03:58:58;;;;;;;10.48;2.88;;;8.40;1.00;;;;;;5059597;28;20040;-80
2023/09/15 04:01:25;;;;;;;6.22;2.80;;;8.30;1.00;;;;;;5083267;28;20040;-80
2023/09/15 04:03:51;;;;;;;8.48;3.05;;;8.30;1.00;;;;;;5076086;28;20055;-81
2023/09/15 04:06:17;;;;;;;5.43;3.03;;;8.30;1.00;;;;;;5053026;28;20036;-81
2023/09/15 04:08:43;;;;;;;7.30;3.15;;;8.30;1.00;;;;;;5073705;28;20016;-81
2023/09/15 04:11:08;;;;;;;5.22;3.28;;;8.30;1.00;;;;;;5074383;28;20040;-81
2023/09/15 04:13:34;;;;;;;4.60;3.35;;;8.30;1.00;;;;;;5081670;28;20040;-81
2023/09/15 04:16:00;;;;;;;5.72;3.92;;;8.40;1.00;;;;;;5057264;28;20052;-80
2023/09/15 04:18:26;;;;;;;7.25;3.40;;;8.40;1.70;;;;;;5081965;28;20095;-81
2023/09/15 04:20:53;;;;;;;6.60;3.28;;;8.30;1.20;;;;;;5068198;28;20058;-81
2023/09/15 04:23:19;;;;;;;4.45;3.50;;;8.30;1.70;;;;;;5076123;28;20040;-80
2023/09/15 04:25:45;;;;;;;9.18;3.58;;;8.30;3.80;;;;;;5061324;28;20067;-80
2023/09/15 04:28:12;;;;;;;6.32;3.22;;;8.30;4.10;;;;;;5051151;28;20037;-81
2023/09/15 04:30:38;;;;;;;4.82;3.13;;;8.30;4.00;;;;;;5077452;28;20115;-81
2023/09/15 04:33:04;;;;;;;5.10;3.25;;;8.30;5.00;;;;;;5058572;28;20040;-79
2023/09/15 04:35:30;;;;;;;7.00;3.47;;;8.20;6.40;;;;;;5072800;28;20062;-80
2023/09/15 04:37:55;;;;;;;5.18;2.90;;;8.30;10.30;;;;;;5082077;28;20108;-79
2023/09/15 04:40:21;;;;;;;5.22;2.90;;;8.20;10.90;;;;;;5058576;28;20092;-80
2023/09/15 04:42:47;;;;;;;6.40;3.22;;;8.20;9.40;;;;;;5084618;28;20029;-80
2023/09/15 04:45:13;;;;;;;5.35;3.10;;;8.10;10.30;;;;;;5076636;28;20462;-80
2023/09/15 04:47:40;;;;;;;6.72;3.40;;;8.10;11.30;;;;;;5077266;28;20033;-81
2023/09/15 04:50:07;;;;;;;9.95;3.10;;;8.00;14.10;;;;;;5059764;28;20033;-80
2023/09/15 04:52:33;;;;;;;6.45;3.22;;;8.00;14.70;;;;;;5056976;28;20414;-80
2023/09/15 04:54:59;;;;;;;8.10;3.40;;;7.90;14.70;;;;;;5048365;28;20112;-79
2023/09/15 04:57:25;;;;;;;6.15;3.33;;;7.90;18.40;;;;;;5071499;28;20040;-80
2023/09/15 04:59:53;;;;;;;6.20;3.50;;;7.90;22.50;;;;;;5055665;28;20024;-80
2023/09/15 05:02:22;;;;;;;6.05;3.55;;;7.90;25.20;;;;;;5066247;28;20578;-80
2023/09/15 05:04:48;;;;;;;7.20;3.35;;;8.00;28.00;;;;;;5070826;28;20583;-79
2023/09/15 05:07:15;;;;;;;11.43;5.28;;;7.90;31.10;;;;;;5064748;28;20051;-80
2023/09/15 05:09:40;;;;;;;5.68;3.80;;;8.00;32.00;;;;;;5048667;28;20056;-80
2023/09/15 05:12:06;;;;;;;8.15;3.78;;;8.00;34.60;;;;;;5057430;28;20067;-80
2023/09/15 05:14:32;;;;;;;7.32;3.55;;;8.00;36.80;;;;;;5036826;28;20052;-80
2023/09/15 05:16:57;;;;;;;8.40;3.60;;;7.90;37.30;;;;;;5057725;28;20040;-80
2023/09/15 05:19:23;;;;;;;6.85;3.97;;;7.90;43.50;;;;;;5064042;28;20554;-79
2023/09/15 05:21:49;;;;;;;8.80;4.03;;;8.00;46.80;;;;;;5061287;28;20403;-80
2023/09/15 05:24:14;;;;;;;7.68;3.88;;;8.00;51.60;;;;;;5078159;28;20033;-80
2023/09/15 05:26:40;;;;;;;9.02;4.55;;;8.00;55.10;;;;;;5058354;28;20115;-81
2023/09/15 05:29:06;;;;;;;8.40;4.63;;;8.00;62.70;;;;;;5050503;28;20132;-80
2023/09/15 05:31:31;;;;;;;10.60;4.10;;;8.10;61.40;;;;;;5056562;28;20040;-80
2023/09/15 05:33:57;;;;;;;7.68;4.03;;;8.20;64.40;;;;;;5049162;28;20078;-81
2023/09/15 05:36:23;;;;;;;10.88;4.35;;;8.20;66.10;;;;;;5038341;28;20044;-80
2023/09/15 05:38:49;;;;;;;7.18;4.65;;;8.20;70.90;;;;;;5028083;28;20040;-79
2023/09/15 05:41:15;;;;;;;10.75;4.30;;;8.20;71.70;;;;;;5040023;28;20057;-80
2023/09/15 05:43:41;;;;;;;8.30;3.97;;;8.30;72.90;;;;;;5052801;28;20052;-80
2023/09/15 05:46:07;;;;;;;9.50;5.18;;;8.30;77.80;;;;;;5047266;28;20140;-81
2023/09/15 05:48:33;;;;;;;8.48;4.30;;;8.40;77.60;;;;;;5043568;28;20155;-80
2023/09/15 05:50:59;;;;;;;7.72;4.25;;;8.40;78.60;;;;;;5031227;28;20123;-79
2023/09/15 05:53:24;;;;;;;8.00;4.20;;;8.50;75.60;;;;;;5054144;28;20604;-80
2023/09/15 05:55:50;;;;;;;7.65;4.28;;;8.50;79.70;;;;;;5039439;28;20107;-79
2023/09/15 05:58:16;;;;;;;8.15;4.57;;;8.50;83.90;;;;;;5047354;28;20504;-79
2023/09/15 06:00:42;;;;;;;9.52;5.53;;;8.60;86.90;;;;;;5045519;28;20029;-79
2023/09/15 06:03:08;;;;;;;7.60;4.55;;;8.70;91.20;;;;;;5053676;28;20077;-79
2023/09/15 06:05:34;;;;;;;8.68;4.95;;;8.80;96.50;;;;;;5036192;28;20032;-79
2023/09/15 06:08:01;;;;;;;11.68;4.85;;;9.00;99.90;;;;;;5035621;28;20071;-79
2023/09/15 06:10:26;;;;;;;10.05;4.80;;;9.10;99.90;;;;;;5034271;28;20058;-80
2023/09/15 06:12:52;;;;;;;8.05;3.97;;;9.30;99.90;;;;;;5055650;28;20079;-80
2023/09/15 06:15:21;;;;;;;6.13;4.38;;;9.40;99.90;;;;;;5061845;28;20502;-80
2023/09/15 06:17:47;;;;;;;7.13;3.92;;;9.60;99.90;;;;;;5051486;28;20040;-80
2023/09/15 06:20:13;;;;;;;5.47;3.67;;;9.70;99.90;;;;;;5056381;28;20793;-79
2023/09/15 06:22:38;;;;;;;7.45;3.40;;;9.80;99.90;;;;;;5039318;28;20040;-79
2023/09/15 06:25:04;;;;;;;7.10;3.42;;;9.90;99.90;;;;;;5056298;28;20036;-80
2023/09/15 06:27:33;;;;;;;7.88;3.25;;;9.90;99.90;;;;;;5056403;28;20043;-80
2023/09/15 06:29:59;;;;;;;5.60;3.33;;;9.90;99.90;;;;;;5038049;28;20482;-79
2023/09/15 06:32:24;;;;;;;7.32;3.50;;;9.90;99.90;;;;;;5051072;28;20102;-81
2023/09/15 06:34:50;;;;;;;6.68;3.63;;;9.90;99.90;;;;;;5058229;28;20044;-80
2023/09/15 06:37:16;;;;;;;6.03;3.72;;;9.90;99.90;;;;;;5034734;28;20044;-81
2023/09/15 06:39:42;;;;;;;6.50;3.80;;;9.90;99.90;;;;;;5037582;28;20482;-81
2023/09/15 06:42:08;;;;;;;7.43;3.80;;;9.90;99.90;;;;;;5058323;28;20045;-81
2023/09/15 06:44:35;;;;;;;8.00;4.18;;;9.90;99.90;;;;;;5037362;28;20055;-80
2023/09/15 06:47:01;;;;;;;6.22;3.53;;;10.00;99.90;;;;;;5052758;28;20051;-80
2023/09/15 06:49:27;;;;;;;8.40;3.80;;;10.00;99.90;;;;;;5035325;28;20043;-79
2023/09/15 06:51:54;;;;;;;7.78;3.35;;;10.10;99.90;;;;;;5051924;28;20075;-79
2023/09/15 06:54:21;;;;;;;6.38;4.00;;;10.10;99.90;;;;;;5043742;28;20071;-79
2023/09/15 06:56:47;;;;;;;7.00;4.03;;;10.20;99.90;;;;;;5053645;28;20045;-79
2023/09/15 06:59:13;;;;;;;7.25;3.85;;;10.20;99.90;;;;;;5053010;28;20074;-80
2023/09/15 07:01:39;;;;;;;8.32;3.88;;;10.30;99.90;;;;;;5043078;28;20045;-80
2023/09/15 07:04:06;;;;;;;5.07;3.85;;;10.30;99.90;;;;;;5050895;28;20060;-79
2023/09/15 07:06:32;;;;;;;8.85;4.05;;;10.40;99.90;;;;;;5033188;28;20053;-78
2023/09/15 07:08:58;;;;;;;8.05;4.00;;;10.50;99.90;;;;;;5069147;28;20510;-80
2023/09/15 07:11:23;;;;;;;7.00;4.80;;;10.60;99.90;;;;;;5051076;28;20411;-79
2023/09/15 07:13:49;;;;;;;7.60;3.83;;;10.60;99.90;;;;;;5032311;28;20029;-79
2023/09/15 07:16:15;;;;;;;6.90;3.83;;;10.60;99.90;;;;;;5032965;28;20035;-79
2023/09/15 07:18:40;;;;;;;9.57;3.97;;;10.70;99.90;;;;;;5031696;28;20591;-79
2023/09/15 07:21:06;;;;;;;6.03;4.07;;;10.80;99.90;;;;;;5044480;28;20055;-79
2023/09/15 07:23:32;;;;;;;4.90;3.88;;;10.90;96.00;;;;;;5046140;28;20090;-79
2023/09/15 07:25:58;;;;;;;6.40;3.92;;;10.90;90.90;;;;;;5031484;28;20070;-79
2023/09/15 07:28:23;;;;;;;6.43;3.50;;;11.00;83.60;;;;;;5032838;28;20435;-79
2023/09/15 07:30:49;;;;;;;11.05;3.85;;;11.10;78.50;;;;;;5026152;28;20593;-80
2023/09/15 07:33:15;;;;;;;7.90;3.80;;;11.20;72.40;;;;;;5035761;28;20438;-79
2023/09/15 07:35:41;;;;;;;9.32;3.55;;;11.20;66.90;;;;;;5045745;28;20036;-79
2023/09/15 07:38:07;;;;;;;4.18;3.20;;;11.30;63.90;;;;;;5048192;28;20154;-80
2023/09/15 07:40:33;;;;;;;6.65;3.90;;;11.40;59.20;;;;;;5047586;28;20607;-79
2023/09/15 07:42:59;;;;;;;6.68;4.00;;;11.50;52.20;;;;;;5047035;28;20044;-79
2023/09/15 07:45:26;;;;;;;11.50;3.70;;;11.60;48.90;;;;;;5036428;28;20087;-79
2023/09/15 07:47:52;;;;;;;6.68;3.70;;;11.60;44.20;;;;;;5048397;28;20059;-79
2023/09/15 07:50:18;;;;;;;5.45;3.60;;;11.80;39.10;;;;;;5052981;28;20036;-79
2023/09/15 07:52:47;;;;;;;6.95;3.92;;;11.80;32.80;;;;;;5043805;28;20110;-80
2023/09/15 07:55:13;;;;;;;8.15;3.75;;;12.00;30.30;;;;;;5026801;28;20052;-79
2023/09/15 07:57:39;;;;;;;5.90;4.40;;;12.10;25.50;;;;;;5029429;28;20036;-79
2023/09/15 08:00:07;;;;;;;9.10;3.60;;;12.20;20.70;;;;;;5033255;28;20033;-79
2023/09/15 08:02:33;;;;;;;6.78;3.25;;;12.20;12.90;;;;;;5031450;28;20068;-80
2023/09/15 08:04:58;;;;;;;6.65;3.60;;;12.30;13.70;;;;;;5032592;28;20072;-79
2023/09/15 08:07:24;;;;;;;7.30;3.67;;;12.40;8.70;;;;;;5032077;28;20133;-79
2023/09/15 08:09:50;;;;;;;10.68;3.47;;;12.50;8.10;;;;;;5047645;28;20051;-79
2023/09/15 08:12:19;;;;;;;10.50;3.13;;;12.60;1.00;;;;;;5048332;28;20040;-79
2023/09/15 08:14:46;;;;;;;5.22;2.90;;;12.70;1.00;;;;;;5028670;28;20438;-79
2023/09/15 08:17:12;;;;;;;8.60;2.80;;;12.80;1.00;;;;;;5046873;28;20051;-80
2023/09/15 08:19:38;;;;;;;6.57;2.85;;;12.90;1.00;;;;;;5030257;28;20041;-79
2023/09/15 08:22:05;;;;;;;5.05;2.53;;;13.00;1.00;;;;;;5028638;28;20028;-79
2023/09/15 08:24:31;;;;;;;6.15;2.72;;;13.10;1.00;;;;;;5046031;28;20056;-79
2023/09/15 08:26:56;;;;;;;4.38;2.33;;;13.20;1.00;;;;;;5031684;28;20064;-79
2023/09/15 08:29:22;;;;;;;4.78;2.13;;;13.30;1.00;;;;;;5044749;28;20112;-76
2023/09/15 08:31:48;;;;;;;4.15;2.60;;;13.30;1.00;;;;;;5024773;28;20044;-77
2023/09/15 08:34:13;;;;;;;5.22;2.25;;;13.50;1.00;;;;;;5046281;28;20047;-76
2023/09/15 08:36:39;;;;;;;4.68;2.38;;;13.60;1.00;;;;;;5028251;28;20067;-79
2023/09/15 08:39:05;;;;;;;8.57;2.72;;;13.70;1.00;;;;;;5047006;28;20060;-79
2023/09/15 08:42:07;;;;;;;7.57;3.17;;;13.80;1.00;;;;;;5029671;28;20095;-80
2023/09/15 08:44:33;;;;;;;7.07;2.53;;;14.00;1.00;;;;;;4986215;28;20041;-79
2023/09/15 08:47:01;;;;;;;4.65;2.30;;;14.10;1.00;;;;;;5018509;28;20364;-79
2023/09/15 08:49:30;;;;;;;6.63;3.25;;;14.30;1.00;;;;;;5032006;28;20036;-80
2023/09/15 08:51:57;;;;;;;8.40;2.47;;;14.30;1.00;;;;;;5045798;28;20051;-80
2023/09/15 08:54:23;;;;;;;6.60;2.20;;;14.40;1.00;;;;;;5045385;28;20093;-80
2023/09/15 08:56:49;;;;;;;4.95;1.85;;;14.60;1.00;;;;;;5049654;28;20048;-80
2023/09/15 08:59:16;;;;;;;5.95;2.10;;;14.70;1.00;;;;;;5034813;28;20086;-80
2023/09/15 09:01:42;;;;;;;4.63;2.10;;;14.80;99.90;;;;;;5045475;28;20039;-77
2023/09/15 09:04:07;;;;;;;3.42;2.08;;;14.90;99.90;;;;;;5050324;28;20062;-77
2023/09/15 09:06:35;;;;;;;4.65;2.05;;;15.00;99.90;;;;;;5051739;28;20110;-80
2023/09/15 09:09:02;;;;;;;4.72;1.92;;;15.10;99.90;;;;;;5030288;28;20043;-78
2023/09/15 09:11:28;;;;;;;5.28;1.80;;;15.20;99.90;;;;;;5059035;28;20119;-77
2023/09/15 09:13:54;;;;;;;3.85;1.80;;;15.50;99.90;;;;;;5046658;28;20044;-78
2023/09/15 09:16:21;;;;;;;4.70;2.03;;;15.60;99.90;;;;;;5054540;28;20040;-78
2023/09/15 09:18:57;;;;;;;8.93;2.08;;;15.70;99.90;;;;;;5032944;28;20044;-78
2023/09/15 09:21:26;;;;;;;;;;;15.90;99.90;;;;;;5046431;28;20174;-78
2023/09/15 09:23:52;;;;;;;5.35;1.70;;;16.00;99.90;;;;;;5051649;28;20397;-78
2023/09/15 09:26:18;;;;;;;7.65;2.10;;;16.10;99.90;;;;;;5044443;28;20044;-79
2023/09/15 09:28:44;;;;;;;5.55;1.80;;;16.40;96.30;;;;;;5030705;28;20102;-78
2023/09/15 09:31:10;;;;;;;3.40;1.90;;;16.70;1.00;;;;;;5044166;28;20048;-78
2023/09/15 09:33:36;;;;;;;5.30;2.00;;;17.20;1.00;;;;;;5029678;28;20041;-78
2023/09/15 09:36:13;;;;;;;4.80;1.92;;;18.60;99.90;;;;;;5060799;28;20174;-79
2023/09/15 09:38:41;;;;;;;3.40;2.17;;;20.40;99.90;;;;;;5028439;28;20045;-78
2023/09/15 09:41:09;;;;;;;4.38;2.47;;;21.80;62.50;;;;;;5046648;28;20066;-79
2023/09/15 09:43:35;;;;;;;4.30;1.73;;;22.80;1.00;;;;;;5050518;28;20562;-79
2023/09/15 09:46:03;;;;;;;5.07;2.40;;;23.80;1.00;;;;;;5034950;28;20044;-79
2023/09/15 09:48:29;;;;;;;6.10;2.15;;;24.70;1.00;;;;;;5034006;28;20048;-79
2023/09/15 09:50:55;;;;;;;3.35;2.00;;;25.50;1.00;;;;;;5047255;28;20603;-79
2023/09/15 09:53:33;;;;;;;6.20;2.05;;;26.20;1.00;;;;;;5028871;28;20128;-79
2023/09/15 09:56:05;;;;;;;4.00;2.10;;;26.90;1.00;;;;;;5031403;28;20107;-78
2023/09/15 09:58:32;;;;;;;5.63;2.35;;;27.40;1.00;;;;;;5045086;28;20051;-79
2023/09/15 10:00:58;;;;;;;4.95;1.90;;;28.00;1.00;;;;;;5048326;28;20561;-79
2023/09/15 10:03:24;;;;;;;2.92;1.92;;;28.40;1.00;;;;;;5035245;28;20119;-79
2023/09/15 10:05:50;;;;;;;3.10;1.65;;;28.90;1.00;;;;;;5033420;28;20509;-79
2023/09/15 10:08:16;;;;;;;4.35;1.80;;;29.50;1.00;;;;;;5048205;28;20383;-78
2023/09/15 10:10:44;;;;;;;3.40;2.33;;;29.80;1.00;;;;;;5043196;28;20045;-79
2023/09/15 10:13:10;;;;;;;3.78;1.52;;;30.20;1.00;;;;;;5045037;28;20048;-79
2023/09/15 10:15:40;;;;;;;4.35;1.90;;;30.30;1.00;;;;;;5045278;28;20593;-79
2023/09/15 10:18:08;;;;;;;4.22;1.50;;;30.40;1.00;;;;;;5058505;28;20091;-77
2023/09/15 10:20:35;;;;;;;3.72;1.60;;;30.40;1.00;;;;;;5047807;28;20045;-79
2023/09/15 10:23:04;;;;;;;4.95;1.70;;;30.50;1.00;;;;;;5046757;28;20040;-79
2023/09/15 10:25:42;;;;;;;3.05;1.33;;;30.60;1.00;;;;;;5032166;28;20557;-79
2023/09/15 10:28:11;;;;;;;5.35;1.85;;;31.00;1.00;;;;;;5057402;28;20485;-79
2023/09/15 10:30:38;;;;;;;4.65;1.50;;;31.20;1.00;;;;;;5047969;28;20044;-79
2023/09/15 10:33:07;;;;;;;2.45;1.50;;;31.30;1.00;;;;;;5049329;28;20044;-79
2023/09/15 10:35:33;;;;;;;4.00;1.73;;;31.30;1.00;;;;;;5032694;28;20048;-79
2023/09/15 10:38:03;;;;;;;5.80;1.42;;;31.20;1.00;;;;;;5048284;28;20055;-79
2023/09/15 10:40:49;;;;;;;4.85;1.60;;;31.40;1.00;;;;;;5045666;28;20064;-79
2023/09/15 10:43:17;;;;;;;3.08;1.73;;;31.80;1.00;;;;;;5047665;28;20048;-79
2023/09/15 10:45:57;;;;;;;2.78;1.30;;;32.00;1.00;;;;;;5025810;28;20033;-79
2023/09/15 10:48:35;;;;;;;6.20;1.55;;;32.30;1.00;;;;;;5050942;28;20837;-79
2023/09/15 10:51:08;;;;;;;3.53;1.38;;;32.70;1.00;;;;;;5033227;28;20055;-79
2023/09/15 10:53:44;;;;;;;5.03;1.65;;;33.00;1.00;;;;;;5056867;28;20150;-79
2023/09/15 10:56:12;;;;;;;2.10;1.30;;;33.20;1.00;;;;;;5039620;28;20116;-79
2023/09/15 10:58:38;;;;;;;2.92;1.08;;;33.50;1.00;;;;;;5050048;28;20094;-80
2023/09/15 11:01:05;;;;;;;2.42;1.20;;;33.70;1.00;;;;;;5039061;28;20045;-80
2023/09/15 11:03:31;;;;;;;5.60;1.40;;;34.00;1.00;;;;;;5060553;28;20032;-80
2023/09/15 11:05:58;;;;;;;3.50;1.55;;;34.30;1.00;;;;;;5028803;28;20444;-79
2023/09/15 11:08:26;;;;;;;2.53;1.35;;;34.40;1.00;;;;;;5046206;28;20052;-80
2023/09/15 11:10:59;;;;;;;2.42;1.40;;;34.30;1.00;;;;;;5032329;28;20037;-79
2023/09/15 11:13:25;;;;;;;2.05;1.15;;;33.90;1.00;;;;;;5047224;28;20039;-79
2023/09/15 11:15:51;;;;;;;3.80;1.33;;;33.40;1.00;;;;;;5027333;28;20566;-79
2023/09/15 11:18:18;;;;;;;4.28;1.25;;;33.40;1.00;;;;;;5045929;28;20036;-79
2023/09/15 11:20:44;;;;;;;3.83;1.52;;;33.30;1.00;;;;;;5048526;28;20044;-79
2023/09/15 11:23:10;;;;;;;3.38;1.23;;;33.20;1.00;;;;;;5042259;28;20044;-79
2023/09/15 11:25:35;;;;;;;6.55;1.40;;;33.20;1.00;;;;;;5040367;28;20063;-80
2023/09/15 11:28:01;;;;;;;2.50;1.30;;;33.50;1.00;;;;;;5047360;28;20487;-80
2023/09/15 11:30:28;;;;;;;1.58;0.90;;;33.80;1.00;;;;;;5029744;28;20040;-80
2023/09/15 11:32:55;;;;;;;2.78;1.17;;;34.30;1.00;;;;;;5046338;28;20045;-79
2023/09/15 11:35:24;;;;;;;3.97;1.52;;;34.60;1.00;;;;;;5067092;28;20063;-80
2023/09/15 11:37:53;;;;;;;2.40;1.30;;;35.00;1.00;;;;;;5045626;28;20529;-79
2023/09/15 11:40:22;;;;;;;2.30;1.20;;;35.30;1.00;;;;;;5029542;28;20751;-80
2023/09/15 11:42:56;;;;;;;2.42;1.10;;;35.20;1.00;;;;;;5032486;28;20051;-80
2023/09/15 11:45:25;;;;;;;4.97;1.20;;;35.10;1.00;;;;;;5031417;28;20158;-79
2023/09/15 11:47:51;;;;;;;2.03;1.17;;;35.20;1.00;;;;;;5042124;28;20043;-80
2023/09/15 11:50:18;;;;;;;3.15;1.40;;;35.50;1.00;;;;;;5046260;28;20033;-80
2023/09/15 11:52:44;;;;;;;2.38;1.20;;;35.40;1.00;;;;;;5049252;28;20094;-80
2023/09/15 11:55:21;;;;;;;2.88;1.40;;;35.10;1.00;;;;;;5042555;28;20052;-80
2023/09/15 11:57:53;;;;;;;2.70;1.13;;;34.80;1.00;;;;;;5041575;28;20071;-77
2023/09/15 12:00:20;;;;;;;3.47;1.00;;;34.20;1.00;;;;;;5066759;28;20052;-79
2023/09/15 12:02:48;;;;;;;3.33;1.10;;;33.00;1.00;;;;;;5024744;28;20090;-79
2023/09/15 12:05:18;;;;;;;5.55;1.40;;;31.70;1.00;;;;;;5029747;28;20044;-78
2023/09/15 12:07:44;;;;;;;3.10;1.30;;;30.70;1.00;;;;;;5032682;28;20040;-80
2023/09/15 12:10:17;;;;;;;4.63;1.42;;;29.80;1.00;;;;;;5028710;28;20112;-80
2023/09/15 12:12:57;;;;;;;2.42;1.38;;;30.00;1.00;;;;;;5029370;28;20123;-80
2023/09/15 12:15:24;;;;;;;1.95;1.05;;;31.40;1.00;;;;;;5025546;28;20048;-77
2023/09/15 12:17:50;;;;;;;3.25;1.13;;;32.80;1.00;;;;;;5032065;28;20036;-77
2023/09/15 12:20:16;;;;;;;2.63;1.30;;;33.90;1.00;;;;;;5022000;28;20599;-77
2023/09/15 12:22:44;;;;;;;1.58;0.90;;;34.50;1.00;;;;;;5026409;28;20124;-77
2023/09/15 12:25:15;;;;;;;4.40;1.33;;;35.00;1.00;;;;;;5017182;28;20041;-76
2023/09/15 12:27:42;;;;;;;4.82;1.77;;;35.40;1.00;;;;;;5053437;28;20045;-77
2023/09/15 12:30:10;;;;;;;3.95;1.13;;;35.40;1.00;;;;;;5052169;28;20045;-77
2023/09/15 12:32:36;;;;;;;3.53;1.10;;;35.30;1.00;;;;;;5052198;28;20044;-76
2023/09/15 12:35:09;;;;;;;2.67;1.10;;;34.80;1.00;;;;;;5049861;28;20048;-77
2023/09/15 12:37:34;;;;;;;4.03;1.20;;;34.30;1.00;;;;;;5038971;28;20082;-77
2023/09/15 12:40:00;;;;;;;4.18;1.10;;;33.60;1.00;;;;;;5052473;28;20072;-76
2023/09/15 12:42:26;;;;;;;3.25;1.52;;;32.90;1.00;;;;;;5035024;28;20041;-77
2023/09/15 12:44:52;;;;;;;2.22;1.10;;;32.80;1.00;;;;;;5045491;28;20033;-77
2023/09/15 12:47:17;;;;;;;2.03;1.13;;;32.90;1.00;;;;;;5035846;28;20052;-77
2023/09/15 12:49:44;;;;;;;2.60;1.38;;;33.00;1.00;;;;;;5036105;28;20052;-77
2023/09/15 12:52:09;;;;;;;2.72;1.00;;;33.40;1.00;;;;;;5034539;28;20052;-77
2023/09/15 12:54:35;;;;;;;2.63;1.17;;;34.10;1.00;;;;;;5034598;28;20125;-77
2023/09/15 12:57:01;;;;;;;2.75;1.38;;;34.70;1.00;;;;;;5052730;28;20037;-77
2023/09/15 12:59:28;;;;;;;2.67;0.95;;;35.10;1.00;;;;;;5036493;28;20040;-77